首页
METAR-TAF:

METAR-TAF

机场 :

罗萨里奥, 阿根廷

纬度: 32-55S, 经度: 060-47W, 海拔: 25米

当前天气观测

该预报发布于44分钟前的17:00 UTC
风速7节,风向西南,在西转西南之间变化
温度 22°C
湿度 53%
气压 1015 hPa
能见度10公里或以上
1500米以下无云,无积雨云

METAR: SAAR 241700Z 22007KT 190V250 CAVOK 22/12 Q1015

时间: 14:44 (17:44 UTC)

预报

该预报发布于6小时和44分钟前的11:00 UTC
预报有效从24日的 12点(UTC)到 25日的 12点(UTC)
风速5节,风向多变
能見度: 5000
散云层高于3000英尺
多云层高于5000英尺
小雨
短暂存在
从 24日的 13点(UTC)到 24日的 20点(UTC)
能見度: 4000
散云层高于1000英尺
少量云层高于4000英尺, 塔状积云.
多云层高于5000英尺
阵雨
成为
从 24日的 20点(UTC)到 24日的 22点(UTC)
风速10节,风向西南,有时为20节阵风
能见度10公里或以上
1500米以下无云,无积雨云

TAF: SAAR 241100Z 2412/2512 VRB05KT 5000 -RA SCT030 BKN050 TX21/2419Z TN05/2510Z TEMPO 2413/2420 4000 SHRA SCT010 FEW040TCU BKN050 BECMG 2420/2422 23010G20KT CAVOK

超过4000个机场的气象观测和天气预报(METAR&TAF报告)。

可查询的气象台以黄色和红色小点在地图上表示。

将鼠标移到小点上方,可查看气象台名称。

然后点击查看天气观测和预报。

如需切换地图:点击带黑十字的绿色按钮放大地图;点击带横线的绿色按钮缩小地图;或者点击绿色箭头查看邻近地区的地图。


METAR-TAF: